createdAt,value
2019-04-29T00:00:55.305Z,4.97
2019-04-29T00:03:26.654Z,4.80
2019-04-29T00:05:58.006Z,4.87
2019-04-29T00:08:29.445Z,4.60
2019-04-29T00:11:02.002Z,4.80
2019-04-29T00:13:33.366Z,4.40
2019-04-29T00:16:14.994Z,4.55
2019-04-29T00:19:05.269Z,5.92
2019-04-29T00:21:37.225Z,4.35
2019-04-29T00:24:08.601Z,4.40
2019-04-29T00:26:39.985Z,5.47
2019-04-29T00:29:11.334Z,5.03
2019-04-29T00:31:43.740Z,5.47
2019-04-29T00:34:14.889Z,5.40
2019-04-29T00:36:53.070Z,5.80
2019-04-29T00:39:53.799Z,5.58
2019-04-29T00:42:44.001Z,5.60
2019-04-29T00:45:16.231Z,5.53
2019-04-29T00:47:47.483Z,5.85
2019-04-29T00:50:18.983Z,5.87
2019-04-29T00:52:50.419Z,6.72
2019-04-29T00:55:24.170Z,5.60
2019-04-29T00:57:55.667Z,5.37
2019-04-29T01:00:35.019Z,5.65
2019-04-29T01:03:06.879Z,5.33
2019-04-29T01:05:38.958Z,4.62
2019-04-29T01:08:10.557Z,5.05
2019-04-29T01:10:42.112Z,4.40
2019-04-29T01:13:13.644Z,5.40
2019-04-29T01:15:45.391Z,5.03
2019-04-29T01:18:17.155Z,5.65
2019-04-29T01:20:48.866Z,4.70
2019-04-29T01:23:20.466Z,5.22
2019-04-29T01:25:55.602Z,5.90
2019-04-29T01:28:35.998Z,5.12
2019-04-29T01:31:18.105Z,4.70
2019-04-29T01:33:51.369Z,5.28
2019-04-29T01:36:30.391Z,5.22
2019-04-29T01:39:04.488Z,4.42
2019-04-29T01:41:43.992Z,4.08
2019-04-29T01:44:16.223Z,3.87
2019-04-29T01:46:47.529Z,3.98
2019-04-29T01:49:18.853Z,3.75
2019-04-29T01:51:50.263Z,4.20
2019-04-29T01:54:21.599Z,3.62
2019-04-29T01:56:53.039Z,3.58
2019-04-29T01:59:24.530Z,4.00
2019-04-29T02:01:55.873Z,4.20
2019-04-29T02:04:27.412Z,3.65
2019-04-29T02:06:58.936Z,3.98
2019-04-29T02:09:35.530Z,3.70
2019-04-29T02:12:07.143Z,3.80
2019-04-29T02:14:38.634Z,3.47
2019-04-29T02:17:10.295Z,3.62
2019-04-29T02:19:41.922Z,3.72
2019-04-29T02:22:41.693Z,3.60
2019-04-29T02:25:18.140Z,3.98
2019-04-29T02:27:49.460Z,3.85
2019-04-29T02:30:45.321Z,3.70
2019-04-29T02:33:16.907Z,3.65
2019-04-29T02:35:48.569Z,3.95
2019-04-29T02:38:33.147Z,4.15
2019-04-29T02:41:11.453Z,4.20
2019-04-29T02:43:45.807Z,4.42
2019-04-29T02:46:17.417Z,5.03
2019-04-29T02:48:48.984Z,4.62
2019-04-29T02:51:37.439Z,5.28
2019-04-29T02:54:08.807Z,5.50
2019-04-29T02:56:41.547Z,5.65
2019-04-29T02:59:13.671Z,5.58
2019-04-29T03:02:02.196Z,5.78
2019-04-29T03:04:36.900Z,5.80
2019-04-29T03:07:08.667Z,5.17
2019-04-29T03:09:45.543Z,5.55
2019-04-29T03:12:18.113Z,5.50
2019-04-29T03:14:49.551Z,5.58
2019-04-29T03:17:21.200Z,5.67
2019-04-29T03:20:11.505Z,5.45
2019-04-29T03:22:43.734Z,5.37
2019-04-29T03:25:14.098Z,6.28
2019-04-29T03:27:45.618Z,5.65
2019-04-29T03:30:17.398Z,5.83
2019-04-29T03:32:48.904Z,6.53
2019-04-29T03:35:20.530Z,6.10
2019-04-29T03:37:52.075Z,7.10
2019-04-29T03:40:23.715Z,5.90
2019-04-29T03:42:55.278Z,6.40
2019-04-29T03:45:26.975Z,6.15
2019-04-29T03:47:59.389Z,5.95
2019-04-29T03:50:31.068Z,5.95
2019-04-29T03:53:03.891Z,5.92
2019-04-29T03:55:39.691Z,6.20
2019-04-29T03:58:08.690Z,6.30
2019-04-29T04:00:44.012Z,5.95
2019-04-29T04:03:39.897Z,6.95
2019-04-29T04:06:20.655Z,7.67
2019-04-29T04:09:05.470Z,7.53
2019-04-29T04:11:29.461Z,7.45
2019-04-29T04:14:01.012Z,9.83
2019-04-29T04:16:50.590Z,7.22
2019-04-29T04:19:22.821Z,7.55
2019-04-29T04:21:54.325Z,7.67
2019-04-29T04:24:25.932Z,7.85
2019-04-29T04:26:57.506Z,6.72
2019-04-29T04:29:29.237Z,6.58
2019-04-29T04:32:00.817Z,5.92
2019-04-29T04:34:32.127Z,6.70
2019-04-29T04:37:03.467Z,5.97
2019-04-29T04:39:36.735Z,5.83
2019-04-29T04:42:08.078Z,5.58
2019-04-29T04:44:49.345Z,6.17
2019-04-29T04:47:21.341Z,6.78
2019-04-29T04:49:53.086Z,6.83
2019-04-29T04:52:24.437Z,6.87
2019-04-29T04:54:56.262Z,5.50
2019-04-29T04:57:27.560Z,5.20
2019-04-29T04:59:59.111Z,5.60
2019-04-29T05:02:30.411Z,5.47
2019-04-29T05:05:01.689Z,5.17
2019-04-29T05:07:33.597Z,5.00
2019-04-29T05:10:04.796Z,5.13
2019-04-29T05:12:36.009Z,5.20
2019-04-29T05:15:07.478Z,5.70
2019-04-29T05:17:38.611Z,4.93
2019-04-29T05:20:11.260Z,5.13
2019-04-29T05:22:59.509Z,5.00
2019-04-29T05:25:32.105Z,5.50
2019-04-29T05:28:03.542Z,5.40
2019-04-29T05:30:34.836Z,5.23
2019-04-29T05:33:06.046Z,5.97
2019-04-29T05:35:56.618Z,5.33
2019-04-29T05:38:31.679Z,6.33
2019-04-29T05:41:03.081Z,5.97
2019-04-29T05:43:40.967Z,6.50
2019-04-29T05:46:24.755Z,6.17
2019-04-29T05:48:55.916Z,6.27
2019-04-29T05:51:32.420Z,6.23
2019-04-29T05:54:04.514Z,7.30
2019-04-29T05:56:35.468Z,6.77
2019-04-29T05:59:08.532Z,6.17
2019-04-29T06:01:42.606Z,6.83
2019-04-29T06:04:16.362Z,7.13
2019-04-29T06:06:45.000Z,6.80
2019-04-29T06:09:18.416Z,6.67
2019-04-29T06:11:49.567Z,7.50
2019-04-29T06:14:22.261Z,7.53
2019-04-29T06:16:57.452Z,7.10
2019-04-29T06:19:26.706Z,7.50
2019-04-29T06:21:58.088Z,7.40
2019-04-29T06:24:29.278Z,6.93
2019-04-29T06:27:00.596Z,7.73
2019-04-29T06:29:31.582Z,7.27
2019-04-29T06:32:02.825Z,7.27
2019-04-29T06:34:35.480Z,7.17
2019-04-29T06:37:07.479Z,7.03
2019-04-29T06:39:38.618Z,6.03
2019-04-29T06:42:09.808Z,6.17
2019-04-29T06:44:44.469Z,6.53
2019-04-29T06:47:16.846Z,6.07
2019-04-29T06:49:46.587Z,6.43
2019-04-29T06:52:17.513Z,5.83
2019-04-29T06:54:48.450Z,6.00
2019-04-29T06:57:19.512Z,5.97
2019-04-29T06:59:50.511Z,6.33
2019-04-29T07:02:21.715Z,5.60
2019-04-29T07:04:52.972Z,5.73
2019-04-29T07:07:24.159Z,5.47
2019-04-29T07:09:57.260Z,5.43
2019-04-29T07:12:28.422Z,5.40
2019-04-29T07:15:00.672Z,5.50
2019-04-29T07:17:31.852Z,5.63
2019-04-29T07:20:03.379Z,5.00
2019-04-29T07:22:34.736Z,4.27
2019-04-29T07:25:06.155Z,4.50
2019-04-29T07:27:43.137Z,4.37
2019-04-29T07:30:10.944Z,4.40
2019-04-29T07:32:46.899Z,4.77
2019-04-29T07:35:15.138Z,4.50
2019-04-29T07:37:46.072Z,4.20
2019-04-29T07:40:17.553Z,4.10
2019-04-29T07:42:48.992Z,3.77
2019-04-29T07:45:43.295Z,4.10
2019-04-29T07:48:06.390Z,4.17
2019-04-29T07:50:35.521Z,3.60
2019-04-29T07:53:06.524Z,3.63
2019-04-29T07:55:37.667Z,3.80
2019-04-29T07:58:09.069Z,3.77
2019-04-29T08:00:44.624Z,3.40
2019-04-29T08:03:13.372Z,3.40
2019-04-29T08:05:44.914Z,12.23
2019-04-29T08:08:21.360Z,8.60
2019-04-29T08:10:55.935Z,6.73
2019-04-29T08:13:22.971Z,5.40
2019-04-29T08:15:54.352Z,3.50
2019-04-29T08:18:25.833Z,4.73
2019-04-29T08:20:57.297Z,3.60
2019-04-29T08:23:28.572Z,3.93
2019-04-29T08:26:02.955Z,3.73
2019-04-29T08:28:32.227Z,3.73
2019-04-29T08:31:03.157Z,4.20
2019-04-29T08:33:34.309Z,5.20
2019-04-29T08:36:05.496Z,4.67
2019-04-29T08:38:36.618Z,4.00
2019-04-29T08:41:08.812Z,4.07
2019-04-29T08:44:14.825Z,3.90
2019-04-29T08:46:38.537Z,6.03
2019-04-29T08:49:20.600Z,4.58
2019-04-29T08:51:51.705Z,3.67
2019-04-29T08:54:22.625Z,3.40
2019-04-29T08:57:03.134Z,3.67
2019-04-29T08:59:26.959Z,3.20
2019-04-29T09:01:58.156Z,3.27
2019-04-29T09:04:33.280Z,3.43
2019-04-29T09:07:12.369Z,2.93
2019-04-29T09:09:35.089Z,3.07
2019-04-29T09:12:06.381Z,3.80
2019-04-29T09:14:37.584Z,3.80
2019-04-29T09:17:19.828Z,3.63
2019-04-29T09:19:41.489Z,3.53
2019-04-29T09:22:14.499Z,3.37
2019-04-29T09:25:04.349Z,2.87
2019-04-29T09:27:36.291Z,3.90
2019-04-29T09:30:07.940Z,3.53
2019-04-29T09:32:39.980Z,4.17
2019-04-29T09:35:11.304Z,2.90
2019-04-29T09:37:42.497Z,2.90
2019-04-29T09:40:16.098Z,2.83
2019-04-29T09:43:14.773Z,2.60
2019-04-29T09:46:00.273Z,2.73
2019-04-29T09:48:31.877Z,2.57
2019-04-29T09:51:16.328Z,2.87
2019-04-29T09:53:36.110Z,2.50
2019-04-29T09:56:07.256Z,2.40
2019-04-29T09:58:38.435Z,2.40
2019-04-29T10:01:21.204Z,2.50
2019-04-29T10:04:05.597Z,2.50
2019-04-29T10:06:38.108Z,2.57
2019-04-29T10:09:11.236Z,2.57
2019-04-29T10:11:42.452Z,2.43
2019-04-29T10:14:13.917Z,3.03
2019-04-29T10:16:51.719Z,2.60
2019-04-29T10:19:40.449Z,2.43
2019-04-29T10:22:11.751Z,2.77
2019-04-29T10:24:42.856Z,2.77
2019-04-29T10:27:14.202Z,2.13
2019-04-29T10:29:50.701Z,2.60
2019-04-29T10:32:21.146Z,2.17
2019-04-29T10:34:52.292Z,2.63
2019-04-29T10:37:30.956Z,3.03
2019-04-29T10:40:21.438Z,2.17
2019-04-29T10:43:15.406Z,2.60
2019-04-29T10:46:08.156Z,2.30
2019-04-29T10:48:53.740Z,2.30
2019-04-29T10:51:27.346Z,2.73
2019-04-29T10:53:59.619Z,2.30
2019-04-29T10:56:30.770Z,2.77
2019-04-29T10:59:04.512Z,3.10
2019-04-29T11:02:49.216Z,3.10
2019-04-29T11:05:35.414Z,2.53
2019-04-29T11:08:22.549Z,3.07
2019-04-29T11:11:02.174Z,2.63
2019-04-29T11:13:27.403Z,2.53
2019-04-29T11:15:58.506Z,2.70
2019-04-29T11:18:29.585Z,3.40
2019-04-29T11:21:00.854Z,2.60
2019-04-29T11:24:05.697Z,2.33
2019-04-29T11:26:54.874Z,3.73
2019-04-29T11:29:27.367Z,2.73
2019-04-29T11:32:00.965Z,3.40
2019-04-29T11:34:41.028Z,2.40
2019-04-29T11:37:17.897Z,3.00
2019-04-29T11:39:50.329Z,2.27
2019-04-29T11:42:21.201Z,2.30
2019-04-29T11:44:52.391Z,3.03
2019-04-29T11:47:25.173Z,2.53
2019-04-29T11:50:07.542Z,2.43
2019-04-29T11:52:36.617Z,2.30
2019-04-29T11:55:08.423Z,2.30
2019-04-29T11:57:45.954Z,2.40
2019-04-29T12:00:28.026Z,2.10
2019-04-29T12:03:01.444Z,2.33
2019-04-29T12:05:40.235Z,2.73
2019-04-29T12:08:16.391Z,2.80
2019-04-29T12:10:48.399Z,2.13
2019-04-29T12:13:28.175Z,2.53
2019-04-29T12:16:11.026Z,2.50
2019-04-29T12:19:07.171Z,2.50
2019-04-29T12:21:39.251Z,2.20
2019-04-29T12:24:10.580Z,1.43
2019-04-29T12:26:44.318Z,1.53
2019-04-29T12:29:18.246Z,1.70
2019-04-29T12:32:12.179Z,2.03
2019-04-29T12:35:00.816Z,1.57
2019-04-29T12:38:00.681Z,1.60
2019-04-29T12:40:54.591Z,1.50
2019-04-29T12:43:59.359Z,1.73
2019-04-29T12:46:43.901Z,1.60
2019-04-29T12:49:14.963Z,2.00
2019-04-29T12:51:46.161Z,1.43
2019-04-29T12:54:17.268Z,1.40
2019-04-29T12:56:49.511Z,1.93
2019-04-29T12:59:20.735Z,1.77
2019-04-29T13:02:24.322Z,1.80
2019-04-29T13:05:04.851Z,2.00
2019-04-29T13:07:50.195Z,1.73
2019-04-29T13:10:42.405Z,1.70
2019-04-29T13:13:11.348Z,2.60
2019-04-29T13:16:07.445Z,1.50
2019-04-29T13:18:53.950Z,2.70
2019-04-29T13:21:25.951Z,1.40
2019-04-29T13:24:12.822Z,3.10
2019-04-29T13:26:33.339Z,3.10
2019-04-29T13:29:02.879Z,1.93
2019-04-29T13:31:38.386Z,1.77
2019-04-29T13:34:22.967Z,1.87
2019-04-29T13:36:41.472Z,2.30
2019-04-29T13:39:12.847Z,1.60
2019-04-29T13:41:57.076Z,1.73
2019-04-29T13:44:19.658Z,1.60
2019-04-29T13:47:14.979Z,1.90
2019-04-29T13:49:52.538Z,2.40
2019-04-29T13:52:23.650Z,3.10
2019-04-29T13:54:54.757Z,1.73
2019-04-29T13:57:25.841Z,2.17
2019-04-29T14:00:26.356Z,2.10
2019-04-29T14:03:11.758Z,1.97
2019-04-29T14:05:41.758Z,1.80
2019-04-29T14:08:12.975Z,1.83
2019-04-29T14:10:46.820Z,1.80
2019-04-29T14:13:20.652Z,1.57
2019-04-29T14:15:49.432Z,1.70
2019-04-29T14:18:20.407Z,2.10
2019-04-29T14:20:53.175Z,2.07
2019-04-29T14:23:24.181Z,2.03
2019-04-29T14:25:55.339Z,2.03
2019-04-29T14:28:26.615Z,3.53
2019-04-29T14:30:58.028Z,1.80
2019-04-29T14:33:34.352Z,2.60
2019-04-29T14:36:08.532Z,1.90
2019-04-29T14:38:40.743Z,1.73
2019-04-29T14:41:14.093Z,1.80
2019-04-29T14:44:04.969Z,1.77
2019-04-29T14:46:57.833Z,1.50
2019-04-29T14:49:35.451Z,2.30
2019-04-29T14:52:08.209Z,1.80
2019-04-29T14:54:41.822Z,1.70
2019-04-29T14:57:12.147Z,1.87
2019-04-29T14:59:43.609Z,1.73
2019-04-29T15:02:19.250Z,2.20
2019-04-29T15:04:50.936Z,2.03
2019-04-29T15:07:22.291Z,2.23
2019-04-29T15:09:58.196Z,2.40
2019-04-29T15:13:19.770Z,2.97
2019-04-29T15:16:03.713Z,2.87
2019-04-29T15:18:47.468Z,2.10
2019-04-29T15:21:43.808Z,1.60
2019-04-29T15:24:15.839Z,1.70
2019-04-29T15:26:46.680Z,1.60
2019-04-29T15:29:18.280Z,1.53
2019-04-29T15:31:49.394Z,1.53
2019-04-29T15:34:20.403Z,1.70
2019-04-29T15:36:51.586Z,1.47
2019-04-29T15:39:25.243Z,1.50
2019-04-29T15:41:55.672Z,2.17
2019-04-29T15:44:27.067Z,1.90
2019-04-29T15:46:58.213Z,1.80
2019-04-29T15:49:29.583Z,1.33
2019-04-29T15:52:00.788Z,1.77
2019-04-29T15:54:31.895Z,1.47
2019-04-29T15:57:08.030Z,1.37
2019-04-29T15:59:48.587Z,1.53
2019-04-29T16:02:09.506Z,1.33
2019-04-29T16:04:47.317Z,1.40
2019-04-29T16:07:46.752Z,2.13
2019-04-29T16:10:35.135Z,3.83
2019-04-29T16:13:08.266Z,1.80
2019-04-29T16:15:39.297Z,2.03
2019-04-29T16:18:14.742Z,2.20
2019-04-29T16:20:43.435Z,1.90
2019-04-29T16:23:14.882Z,1.47
2019-04-29T16:25:52.001Z,1.27
2019-04-29T16:28:24.465Z,1.30
2019-04-29T16:30:52.353Z,1.43
2019-04-29T16:33:23.420Z,1.23
2019-04-29T16:35:57.588Z,1.93
2019-04-29T16:38:27.267Z,1.90
2019-04-29T16:41:19.559Z,1.83
2019-04-29T16:43:49.432Z,1.57
2019-04-29T16:46:35.351Z,2.37
2019-04-29T16:48:59.793Z,2.57
2019-04-29T16:51:31.191Z,1.83
2019-04-29T16:54:02.490Z,2.70
2019-04-29T16:56:34.047Z,2.23
2019-04-29T16:59:09.343Z,4.27
2019-04-29T17:01:38.421Z,2.80
2019-04-29T17:04:09.634Z,5.00
2019-04-29T17:06:42.052Z,2.20
2019-04-29T17:09:34.935Z,2.50
2019-04-29T17:12:06.566Z,3.43
2019-04-29T17:15:02.417Z,1.53
2019-04-29T17:17:15.686Z,7.27
2019-04-29T17:19:47.007Z,6.37
2019-04-29T17:22:25.637Z,3.97
2019-04-29T17:24:50.753Z,4.10
2019-04-29T17:27:42.337Z,3.77
2019-04-29T17:30:51.686Z,2.87
2019-04-29T17:33:49.032Z,3.20
2019-04-29T17:36:13.474Z,5.73
2019-04-29T17:38:44.793Z,5.30
2019-04-29T17:41:16.175Z,3.37
2019-04-29T17:44:05.370Z,4.10
2019-04-29T17:46:58.301Z,3.93
2019-04-29T17:49:47.296Z,10.10
2019-04-29T17:52:21.782Z,10.57
2019-04-29T17:54:55.665Z,4.73
2019-04-29T17:57:40.684Z,10.87
2019-04-29T18:00:42.223Z,4.80
2019-04-29T18:03:25.978Z,9.60
2019-04-29T18:06:17.288Z,9.57
2019-04-29T18:09:09.674Z,6.20
2019-04-29T18:11:50.591Z,5.27
2019-04-29T18:14:15.052Z,4.67
2019-04-29T18:16:47.816Z,4.20
2019-04-29T18:19:24.995Z,12.50
2019-04-29T18:22:16.021Z,4.20
2019-04-29T18:25:07.280Z,4.30
2019-04-29T18:27:38.291Z,4.23
2019-04-29T18:30:12.281Z,5.20
2019-04-29T18:32:46.614Z,5.37
2019-04-29T18:35:17.040Z,4.20
2019-04-29T18:37:49.389Z,5.03
2019-04-29T18:40:20.846Z,16.57
2019-04-29T18:42:52.302Z,5.03
2019-04-29T18:45:25.522Z,16.93
2019-04-29T18:47:56.611Z,5.77
2019-04-29T18:50:29.704Z,4.33
2019-04-29T18:53:00.833Z,9.00
2019-04-29T18:55:32.210Z,3.87
2019-04-29T18:58:03.379Z,3.50
2019-04-29T19:00:34.871Z,5.03
2019-04-29T19:03:06.666Z,3.73
2019-04-29T19:05:47.259Z,5.10
2019-04-29T19:08:22.850Z,6.97
2019-04-29T19:10:52.357Z,3.63
2019-04-29T19:13:26.053Z,4.63
2019-04-29T19:16:08.997Z,3.80
2019-04-29T19:18:30.517Z,4.40
2019-04-29T19:21:01.642Z,4.20
2019-04-29T19:23:32.651Z,13.57
2019-04-29T19:26:03.792Z,14.13
2019-04-29T19:28:36.985Z,14.13
2019-04-29T19:31:09.828Z,9.60
2019-04-29T19:33:40.803Z,7.17
2019-04-29T19:36:17.138Z,13.93
2019-04-29T19:38:47.245Z,5.20
2019-04-29T19:41:18.525Z,13.03
2019-04-29T19:43:55.045Z,4.73
2019-04-29T19:46:25.325Z,19.97
2019-04-29T19:48:58.293Z,5.47
2019-04-29T19:51:28.851Z,8.97
2019-04-29T19:54:00.181Z,10.40
2019-04-29T19:56:31.135Z,10.67
2019-04-29T19:59:10.263Z,12.40
2019-04-29T20:01:37.952Z,11.70
2019-04-29T20:04:26.223Z,9.33
2019-04-29T20:07:05.541Z,10.93
2019-04-29T20:09:31.431Z,10.67
2019-04-29T20:12:11.344Z,10.43
2019-04-29T20:14:38.564Z,10.67
2019-04-29T20:17:33.106Z,9.87
2019-04-29T20:20:35.105Z,9.63
2019-04-29T20:23:06.071Z,10.70
2019-04-29T20:25:38.543Z,12.10
2019-04-29T20:28:17.205Z,9.30
2019-04-29T20:30:43.325Z,8.23
2019-04-29T20:33:16.073Z,7.83
2019-04-29T20:35:49.331Z,7.37
2019-04-29T20:38:21.007Z,6.20
2019-04-29T20:40:52.364Z,4.60
2019-04-29T20:43:26.136Z,5.60
2019-04-29T20:45:58.099Z,4.07
2019-04-29T20:48:31.397Z,3.30
2019-04-29T20:51:11.674Z,2.80
2019-04-29T20:54:00.239Z,2.80
2019-04-29T20:56:35.189Z,2.50
2019-04-29T20:59:08.990Z,2.63
2019-04-29T21:01:43.087Z,2.47
2019-04-29T21:04:13.114Z,2.77
2019-04-29T21:06:59.201Z,2.57
2019-04-29T21:09:16.953Z,2.80
2019-04-29T21:12:20.383Z,2.10
2019-04-29T21:14:52.704Z,2.40
2019-04-29T21:17:30.704Z,2.40
2019-04-29T21:19:56.735Z,2.53
2019-04-29T21:22:27.864Z,2.47
2019-04-29T21:24:59.018Z,2.33
2019-04-29T21:27:30.277Z,2.20
2019-04-29T21:30:01.236Z,2.50
2019-04-29T21:32:37.063Z,2.37
2019-04-29T21:35:28.857Z,2.50
2019-04-29T21:38:28.495Z,2.27
2019-04-29T21:41:04.300Z,2.50
2019-04-29T21:43:37.446Z,2.40
2019-04-29T21:46:08.511Z,2.67
2019-04-29T21:48:39.718Z,2.47
2019-04-29T21:51:12.447Z,2.73
2019-04-29T21:53:45.801Z,2.40
2019-04-29T21:56:17.003Z,2.40
2019-04-29T21:58:48.483Z,2.20
2019-04-29T22:01:20.240Z,2.53
2019-04-29T22:03:51.402Z,1.90
2019-04-29T22:06:24.834Z,2.93
2019-04-29T22:09:01.119Z,3.30
2019-04-29T22:11:27.913Z,2.53
2019-04-29T22:13:59.308Z,2.60
2019-04-29T22:16:30.558Z,2.30
2019-04-29T22:19:01.763Z,2.27
2019-04-29T22:21:32.802Z,2.33
2019-04-29T22:24:06.178Z,2.10
2019-04-29T22:26:36.967Z,2.80
2019-04-29T22:29:08.307Z,2.30
2019-04-29T22:31:39.588Z,2.30
2019-04-29T22:34:15.135Z,2.40
2019-04-29T22:36:45.438Z,2.00
2019-04-29T22:39:16.944Z,2.07
2019-04-29T22:42:12.524Z,2.20
2019-04-29T22:44:45.641Z,2.50
2019-04-29T22:47:23.382Z,2.60
2019-04-29T22:49:51.426Z,2.27
2019-04-29T22:52:25.402Z,2.30
2019-04-29T22:54:57.949Z,2.13
2019-04-29T22:57:31.686Z,2.77
2019-04-29T23:00:01.442Z,2.40
2019-04-29T23:02:34.418Z,2.83
2019-04-29T23:05:06.412Z,2.47
2019-04-29T23:07:37.880Z,2.00
2019-04-29T23:10:09.723Z,2.70
2019-04-29T23:12:42.076Z,2.20
2019-04-29T23:15:15.065Z,2.30
2019-04-29T23:17:50.674Z,2.10
2019-04-29T23:20:38.651Z,2.00
2019-04-29T23:23:15.625Z,2.00
2019-04-29T23:25:51.807Z,2.00
2019-04-29T23:28:26.908Z,2.60
2019-04-29T23:30:56.172Z,2.17
2019-04-29T23:33:27.586Z,2.20
2019-04-29T23:35:58.857Z,2.40
2019-04-29T23:38:30.497Z,2.00
2019-04-29T23:41:01.833Z,2.37
2019-04-29T23:43:33.125Z,2.13
2019-04-29T23:46:04.958Z,2.43
2019-04-29T23:48:39.525Z,2.30
2019-04-29T23:51:09.658Z,2.30
2019-04-29T23:53:41.159Z,2.33
2019-04-29T23:56:12.495Z,2.30
2019-04-29T23:58:49.788Z,2.10
